Time;durP1;ratioP1;P1;durP2;ratioP2;P2;SDS_P1;SDS_P2;PMS_P1;PMS_P2;Temp;Humidity;BMP_temperature;BMP_pressure;BME280_temperature;BME280_humidity;BME280_pressure;Samples;Min_cycle;Max_cycle;Signal;HPM_P1;HPM_P2
2021/10/25 00:04:50;;;;;;;10.45;5.90;;;;;;;;;;10318214;28;20068;-66
2021/10/25 00:09:50;;;;;;;15.57;6.57;;;;;;;;;;10317982;28;20064;-65
2021/10/25 00:14:50;;;;;;;11.13;6.65;;;;;;;;;;10317607;28;20501;-65
2021/10/25 00:19:48;;;;;;;11.57;6.35;;;;;;;;;;10317858;28;20080;-66
2021/10/25 00:24:47;;;;;;;12.98;7.20;;;;;;;;;;10317568;28;20056;-66
2021/10/25 00:29:45;;;;;;;13.90;8.35;;;;;;;;;;10317353;28;20063;-65
2021/10/25 00:34:45;;;;;;;9.98;6.22;;;;;;;;;;10317060;28;20048;-65
2021/10/25 00:39:43;;;;;;;16.30;8.48;;;;;;;;;;10316792;28;20072;-65
2021/10/25 00:44:41;;;;;;;13.45;8.00;;;;;;;;;;10316735;28;20537;-65
2021/10/25 00:49:40;;;;;;;17.85;9.07;;;;;;;;;;10315417;28;20048;-66
2021/10/25 00:54:40;;;;;;;10.93;7.38;;;;;;;;;;10343466;28;20553;-65
2021/10/25 00:59:39;;;;;;;11.88;7.18;;;;;;;;;;10316182;28;20534;-65
2021/10/25 01:04:38;;;;;;;11.85;7.72;;;;;;;;;;10343619;28;20040;-66
2021/10/25 01:09:36;;;;;;;9.57;6.25;;;;;;;;;;10313986;28;20055;-65
2021/10/25 01:14:37;;;;;;;11.15;6.47;;;;;;;;;;10328617;28;20087;-66
2021/10/25 01:19:36;;;;;;;10.30;5.47;;;;;;;;;;10315445;28;20498;-66
2021/10/25 01:24:41;;;;;;;14.93;5.95;;;;;;;;;;10314484;28;20075;-67
2021/10/25 01:29:39;;;;;;;10.80;5.63;;;;;;;;;;10315409;28;20061;-66
2021/10/25 01:34:37;;;;;;;9.35;6.20;;;;;;;;;;10328610;28;20045;-66
2021/10/25 01:39:39;;;;;;;9.93;5.82;;;;;;;;;;10313924;28;20083;-66
2021/10/25 01:44:39;;;;;;;10.48;5.90;;;;;;;;;;10313538;28;20041;-66
2021/10/25 01:49:40;;;;;;;7.85;5.45;;;;;;;;;;10328274;28;20056;-66
2021/10/25 01:54:40;;;;;;;7.20;5.78;;;;;;;;;;10328036;28;20551;-66
2021/10/25 01:59:40;;;;;;;6.97;4.57;;;;;;;;;;10313413;28;20107;-65
2021/10/25 02:04:42;;;;;;;7.80;4.55;;;;;;;;;;10313228;28;20053;-65
2021/10/25 02:09:42;;;;;;;6.32;4.47;;;;;;;;;;10335134;28;20052;-66
2021/10/25 02:14:41;;;;;;;6.20;4.20;;;;;;;;;;10322243;28;20080;-66
2021/10/25 02:19:39;;;;;;;7.35;4.68;;;;;;;;;;10335900;28;20091;-66
2021/10/25 02:24:48;;;;;;;10.52;4.55;;;;;;;;;;10321298;28;20048;-66
2021/10/25 02:29:50;;;;;;;7.03;4.22;;;;;;;;;;10320877;28;20425;-65
2021/10/25 02:34:53;;;;;;;4.80;3.63;;;;;;;;;;10334924;28;20051;-66
2021/10/25 02:39:53;;;;;;;8.85;4.90;;;;;;;;;;10334724;28;20464;-66
2021/10/25 02:44:51;;;;;;;6.63;4.20;;;;;;;;;;10319874;28;20051;-66
2021/10/25 02:49:49;;;;;;;6.25;4.38;;;;;;;;;;10340978;28;20071;-66
2021/10/25 02:54:49;;;;;;;8.25;4.68;;;;;;;;;;10347653;28;20045;-66
2021/10/25 02:59:49;;;;;;;5.13;4.22;;;;;;;;;;10348293;28;20500;-66
2021/10/25 03:04:47;;;;;;;5.05;3.70;;;;;;;;;;10348128;28;20053;-66
2021/10/25 03:09:48;;;;;;;6.13;3.95;;;;;;;;;;10347399;28;20112;-65
2021/10/25 03:14:46;;;;;;;5.47;3.75;;;;;;;;;;10333463;28;20063;-66
2021/10/25 03:19:46;;;;;;;6.82;4.22;;;;;;;;;;10332755;28;20052;-66
2021/10/25 03:24:45;;;;;;;6.55;4.13;;;;;;;;;;10318873;28;20040;-65
2021/10/25 03:29:44;;;;;;;5.30;4.28;;;;;;;;;;10332814;28;20048;-66
2021/10/25 03:34:43;;;;;;;7.43;5.50;;;;;;;;;;10319659;28;20037;-66
2021/10/25 03:39:49;;;;;;;6.82;4.72;;;;;;;;;;10317831;28;20087;-66
2021/10/25 03:44:50;;;;;;;12.13;5.03;;;;;;;;;;10343446;28;20041;-66
2021/10/25 03:49:53;;;;;;;10.30;7.30;;;;;;;;;;10332454;28;20052;-65
2021/10/25 03:55:16;;;;;;;6.93;5.22;;;;;;;;;;10356979;28;20040;-65
2021/10/25 04:27:23;;;;;;;12.30;6.80;;;;;;;;;;10316407;28;20049;-65
2021/10/25 04:32:22;;;;;;;5.70;4.38;;;;;;;;;;10315761;28;20525;-65
2021/10/25 04:37:20;;;;;;;9.10;5.05;;;;;;;;;;10342515;28;20417;-65
2021/10/25 04:42:31;;;;;;;10.38;5.15;;;;;;;;;;10347884;28;20539;-66
2021/10/25 04:47:29;;;;;;;8.55;4.63;;;;;;;;;;10341764;28;20044;-65
2021/10/25 04:52:34;;;;;;;9.23;5.35;;;;;;;;;;10317472;28;20087;-66
2021/10/25 04:57:34;;;;;;;6.05;4.95;;;;;;;;;;10329984;28;20072;-66
2021/10/25 05:02:32;;;;;;;5.78;4.38;;;;;;;;;;10348363;28;20074;-66
2021/10/25 05:07:31;;;;;;;7.70;5.18;;;;;;;;;;10338242;28;20074;-66
2021/10/25 05:12:30;;;;;;;8.60;6.40;;;;;;;;;;10331892;28;20079;-66
2021/10/25 05:17:32;;;;;;;10.02;6.03;;;;;;;;;;10342235;28;20064;-66
2021/10/25 05:22:34;;;;;;;7.78;5.75;;;;;;;;;;10345306;28;20079;-66
2021/10/25 05:27:38;;;;;;;14.18;5.68;;;;;;;;;;10338243;28;20097;-66
2021/10/25 05:32:37;;;;;;;8.38;5.15;;;;;;;;;;10345089;28;20067;-66
2021/10/25 05:37:36;;;;;;;9.65;5.07;;;;;;;;;;10339919;28;20080;-64
2021/10/25 05:42:36;;;;;;;8.85;5.35;;;;;;;;;;10335005;28;20086;-66
2021/10/25 05:47:34;;;;;;;7.43;5.20;;;;;;;;;;10348006;28;20047;-65
2021/10/25 05:52:37;;;;;;;8.75;4.53;;;;;;;;;;10342125;28;20075;-66
2021/10/25 05:57:35;;;;;;;10.65;5.32;;;;;;;;;;10350360;28;20059;-66
2021/10/25 06:02:35;;;;;;;6.43;4.68;;;;;;;;;;10347960;28;20075;-66
2021/10/25 06:07:43;;;;;;;6.43;4.43;;;;;;;;;;10338375;28;20060;-66
2021/10/25 06:12:45;;;;;;;8.00;4.70;;;;;;;;;;10344098;28;20075;-66
2021/10/25 06:17:55;;;;;;;6.63;5.10;;;;;;;;;;10331960;28;20091;-67
2021/10/25 06:22:58;;;;;;;9.45;5.43;;;;;;;;;;10311491;28;20076;-66
2021/10/25 06:27:59;;;;;;;11.75;6.38;;;;;;;;;;10324786;28;20059;-65
2021/10/25 06:32:58;;;;;;;12.30;6.82;;;;;;;;;;10319891;28;20684;-66
2021/10/25 06:38:16;;;;;;;11.57;6.50;;;;;;;;;;10352169;28;20044;-65
2021/10/25 06:43:15;;;;;;;11.30;5.65;;;;;;;;;;10325192;28;20068;-66
2021/10/25 06:48:17;;;;;;;12.02;5.93;;;;;;;;;;10323880;28;20165;-66
2021/10/25 06:53:17;;;;;;;10.82;5.70;;;;;;;;;;10312751;28;20048;-65
2021/10/25 06:58:48;;;;;;;9.48;5.68;;;;;;;;;;10307443;28;20077;-65
2021/10/25 07:03:47;;;;;;;12.73;7.32;;;;;;;;;;10332000;28;20036;-64
2021/10/25 07:08:48;;;;;;;7.70;5.15;;;;;;;;;;10318035;28;20469;-65
2021/10/25 07:13:50;;;;;;;8.95;5.68;;;;;;;;;;10347243;28;20066;-65
2021/10/25 07:19:05;;;;;;;10.77;4.65;;;;;;;;;;10345757;28;20052;-65
2021/10/25 08:07:17;;;;;;;6.85;4.28;;;;;;;;;;10315053;28;20051;-65
2021/10/25 08:12:39;;;;;;;8.68;4.53;;;;;;;;;;10335425;28;20072;-65
2021/10/25 08:17:44;;;;;;;8.63;4.82;;;;;;;;;;10316296;28;20061;-65
2021/10/25 08:22:42;;;;;;;12.40;5.82;;;;;;;;;;10328850;28;20075;-65
2021/10/25 08:27:44;;;;;;;11.57;6.10;;;;;;;;;;10329212;28;20045;-66
2021/10/25 08:33:02;;;;;;;7.35;5.57;;;;;;;;;;10313860;28;20067;-65
2021/10/25 08:43:18;;;;;;;9.57;5.28;;;;;;;;;;10328609;28;20084;-66
2021/10/25 08:48:17;;;;;;;7.50;5.20;;;;;;;;;;10313542;28;20452;-67
2021/10/25 08:53:16;;;;;;;10.07;6.25;;;;;;;;;;10313534;28;20040;-67
2021/10/25 08:58:24;;;;;;;10.43;6.85;;;;;;;;;;10313299;28;20650;-66
2021/10/25 09:03:23;;;;;;;9.82;6.40;;;;;;;;;;10314111;28;20391;-66
2021/10/25 09:08:33;;;;;;;7.95;5.22;;;;;;;;;;10327783;28;20134;-66
2021/10/25 09:13:35;;;;;;;10.27;4.68;;;;;;;;;;10327458;28;20040;-66
2021/10/25 09:18:38;;;;;;;10.48;6.03;;;;;;;;;;10312226;28;20056;-67
2021/10/25 09:23:39;;;;;;;6.43;4.38;;;;;;;;;;10327309;28;20076;-66
2021/10/25 09:28:41;;;;;;;10.75;6.40;;;;;;;;;;10312910;28;20052;-67
2021/10/25 09:33:42;;;;;;;7.22;6.05;;;;;;;;;;10326958;28;20053;-66
2021/10/25 09:38:59;;;;;;;7.25;5.15;;;;;;;;;;10312134;28;20067;-65
2021/10/25 09:49:30;;;;;;;21.00;10.52;;;;;;;;;;10340806;28;20448;-64
2021/10/25 09:54:29;;;;;;;5.43;3.80;;;;;;;;;;10313070;28;20032;-66
2021/10/25 09:59:33;;;;;;;9.07;6.80;;;;;;;;;;10311433;28;20068;-66
2021/10/25 10:04:33;;;;;;;9.20;4.90;;;;;;;;;;10326401;28;20480;-66
2021/10/25 10:09:55;;;;;;;5.40;4.22;;;;;;;;;;10320938;28;20040;-66
2021/10/25 10:14:56;;;;;;;8.15;6.70;;;;;;;;;;10317195;28;20056;-66
2021/10/25 10:20:00;;;;;;;5.32;4.65;;;;;;;;;;10311690;28;20363;-66
2021/10/25 10:25:14;;;;;;;13.32;5.07;;;;;;;;;;10325286;28;20049;-65
2021/10/25 10:30:16;;;;;;;8.70;5.93;;;;;;;;;;10332971;28;20057;-66
2021/10/25 10:35:37;;;;;;;7.40;5.13;;;;;;;;;;10318782;28;20091;-66
2021/10/25 10:40:45;;;;;;;7.25;4.82;;;;;;;;;;10329099;28;20095;-66
2021/10/25 10:45:45;;;;;;;7.97;4.07;;;;;;;;;;10319634;28;20172;-66
2021/10/25 10:50:46;;;;;;;6.00;4.43;;;;;;;;;;10333184;28;20045;-67
2021/10/25 10:55:50;;;;;;;7.63;4.88;;;;;;;;;;10319772;28;20045;-66
2021/10/25 11:01:00;;;;;;;5.83;4.70;;;;;;;;;;10319498;28;20083;-66
2021/10/25 11:06:00;;;;;;;10.98;5.22;;;;;;;;;;10319111;28;20061;-66
2021/10/25 11:11:00;;;;;;;28.17;19.55;;;;;;;;;;10319116;28;20055;-66
2021/10/25 11:16:06;;;;;;;8.43;6.38;;;;;;;;;;10318704;28;20096;-65
2021/10/25 11:21:12;;;;;;;5.93;5.07;;;;;;;;;;10318591;28;20072;-65
2021/10/25 11:26:12;;;;;;;6.93;4.30;;;;;;;;;;10318502;28;20068;-66
2021/10/25 11:31:17;;;;;;;7.68;4.50;;;;;;;;;;10318244;28;20542;-66
2021/10/25 11:36:16;;;;;;;8.43;5.72;;;;;;;;;;10317776;28;20075;-66
2021/10/25 11:41:14;;;;;;;8.27;4.22;;;;;;;;;;10330570;28;20084;-66
2021/10/25 11:46:19;;;;;;;11.23;5.82;;;;;;;;;;10317797;28;20041;-66
2021/10/25 11:51:17;;;;;;;8.13;6.53;;;;;;;;;;10316296;28;20040;-66
2021/10/25 11:56:16;;;;;;;9.05;4.47;;;;;;;;;;10315780;28;20548;-66
2021/10/25 12:01:15;;;;;;;8.20;4.40;;;;;;;;;;10316991;28;20072;-66
2021/10/25 12:06:21;;;;;;;9.02;5.20;;;;;;;;;;10329879;28;20064;-66
2021/10/25 12:11:25;;;;;;;10.68;7.43;;;;;;;;;;10316709;28;20084;-66
2021/10/25 12:16:23;;;;;;;8.75;4.30;;;;;;;;;;10316626;28;20103;-66
2021/10/25 12:21:33;;;;;;;10.55;4.20;;;;;;;;;;10316346;28;20075;-66
2021/10/25 12:26:31;;;;;;;9.95;5.03;;;;;;;;;;10316133;28;20060;-66
2021/10/25 12:31:29;;;;;;;9.98;6.18;;;;;;;;;;10328911;28;20040;-66
2021/10/25 12:36:34;;;;;;;20.73;13.10;;;;;;;;;;10313597;28;20480;-66
2021/10/25 12:41:43;;;;;;;54.50;33.83;;;;;;;;;;10314404;28;20044;-66
2021/10/25 12:46:41;;;;;;;9.60;6.57;;;;;;;;;;10315347;28;20079;-66
2021/10/25 12:51:41;;;;;;;6.90;4.15;;;;;;;;;;10315282;28;20075;-66
2021/10/25 12:56:41;;;;;;;9.88;6.60;;;;;;;;;;10314702;28;20841;-67
2021/10/25 13:01:50;;;;;;;7.10;4.95;;;;;;;;;;10314750;28;20083;-65
2021/10/25 13:06:49;;;;;;;8.07;4.30;;;;;;;;;;10315268;28;20087;-66
2021/10/25 13:11:49;;;;;;;6.35;5.13;;;;;;;;;;10313444;28;20044;-66
2021/10/25 13:16:49;;;;;;;9.00;5.75;;;;;;;;;;10313893;28;20045;-66
2021/10/25 13:21:48;;;;;;;5.68;3.88;;;;;;;;;;10312857;28;20505;-66
2021/10/25 13:26:49;;;;;;;8.65;4.95;;;;;;;;;;10313710;28;20076;-66
2021/10/25 13:31:47;;;;;;;12.80;9.80;;;;;;;;;;10314128;28;20438;-65
2021/10/25 13:36:46;;;;;;;8.65;6.43;;;;;;;;;;10326536;28;20044;-67
2021/10/25 13:41:44;;;;;;;10.55;6.03;;;;;;;;;;10326382;28;20072;-66
2021/10/25 13:46:43;;;;;;;6.75;4.88;;;;;;;;;;10313947;28;20047;-66
2021/10/25 13:51:42;;;;;;;6.35;4.07;;;;;;;;;;10313779;28;20075;-65
2021/10/25 13:56:40;;;;;;;7.15;5.47;;;;;;;;;;10313410;28;20044;-66
2021/10/25 14:01:38;;;;;;;7.35;5.07;;;;;;;;;;10314595;28;20072;-65
2021/10/25 14:06:38;;;;;;;8.15;5.97;;;;;;;;;;10321885;28;20460;-66
2021/10/25 14:11:40;;;;;;;14.88;9.45;;;;;;;;;;10321628;28;20068;-64
2021/10/25 14:16:42;;;;;;;10.73;6.75;;;;;;;;;;10320844;28;20084;-65
2021/10/25 14:21:42;;;;;;;17.13;8.77;;;;;;;;;;10321344;28;20072;-64
2021/10/25 14:26:40;;;;;;;21.90;10.75;;;;;;;;;;10320962;28;20532;-66
2021/10/25 14:31:42;;;;;;;15.82;8.82;;;;;;;;;;10333875;28;20409;-66
2021/10/25 14:36:43;;;;;;;13.93;8.25;;;;;;;;;;10320769;28;20068;-66
2021/10/25 14:57:36;;;;;;;15.82;8.77;;;;;;;;;;10328453;28;20048;-66
2021/10/25 15:02:35;;;;;;;14.13;10.77;;;;;;;;;;10329311;28;20064;-66
2021/10/25 15:07:35;;;;;;;25.45;12.20;;;;;;;;;;10319711;28;20047;-66
2021/10/25 15:12:33;;;;;;;9.23;7.07;;;;;;;;;;10331160;28;20044;-66
2021/10/25 15:17:52;;;;;;;11.77;8.13;;;;;;;;;;10318628;28;20125;-65
2021/10/25 15:22:52;;;;;;;13.00;7.65;;;;;;;;;;10318924;28;20084;-66
2021/10/25 15:27:54;;;;;;;25.20;11.13;;;;;;;;;;10319344;28;20386;-65
2021/10/25 15:32:53;;;;;;;13.80;10.13;;;;;;;;;;10333731;28;20071;-65
2021/10/25 15:37:53;;;;;;;11.13;7.55;;;;;;;;;;10335926;28;20082;-66
2021/10/25 15:42:51;;;;;;;15.00;9.80;;;;;;;;;;10318724;28;20361;-66
2021/10/25 15:47:50;;;;;;;16.55;11.13;;;;;;;;;;10318491;28;20045;-66
2021/10/25 15:52:48;;;;;;;19.02;12.63;;;;;;;;;;10317527;28;20462;-66
2021/10/25 15:57:48;;;;;;;23.95;16.92;;;;;;;;;;10317475;28;20064;-65
2021/10/25 16:02:51;;;;;;;25.43;14.87;;;;;;;;;;10317875;28;20076;-65
2021/10/25 16:07:51;;;;;;;24.98;16.15;;;;;;;;;;10317698;28;20083;-66
2021/10/25 16:12:50;;;;;;;22.00;17.40;;;;;;;;;;10317247;28;20072;-65
2021/10/25 16:17:49;;;;;;;22.75;15.65;;;;;;;;;;10314629;28;20053;-66
2021/10/25 16:22:47;;;;;;;26.02;18.27;;;;;;;;;;10332233;28;20186;-66
2021/10/25 16:27:46;;;;;;;22.55;14.45;;;;;;;;;;10329655;28;20068;-64
2021/10/25 16:32:47;;;;;;;25.88;15.98;;;;;;;;;;10341246;28;20075;-63
2021/10/25 16:37:45;;;;;;;22.33;14.48;;;;;;;;;;10333902;28;20517;-66
2021/10/25 16:42:44;;;;;;;27.40;14.75;;;;;;;;;;10339359;28;20072;-65
2021/10/25 16:47:43;;;;;;;29.45;20.35;;;;;;;;;;10339421;28;20466;-65
2021/10/25 16:52:50;;;;;;;21.98;14.95;;;;;;;;;;10336520;28;20076;-64
2021/10/25 17:03:13;;;;;;;;;;;;;;;;;;10339001;28;20079;-64
2021/10/25 17:13:28;;;;;;;21.50;13.27;;;;;;;;;;10333428;28;20509;-62
2021/10/25 17:18:27;;;;;;;51.00;34.00;;;;;;;;;;10333070;28;20102;-63
2021/10/25 17:23:31;;;;;;;21.33;15.57;;;;;;;;;;10342213;28;20082;-63
2021/10/25 17:28:31;;;;;;;17.13;11.38;;;;;;;;;;10338174;28;20092;-64
2021/10/25 17:33:29;;;;;;;19.33;11.55;;;;;;;;;;10347503;28;20079;-63
2021/10/25 17:38:29;;;;;;;17.70;12.05;;;;;;;;;;10336843;28;20067;-64
2021/10/25 17:43:28;;;;;;;15.70;10.32;;;;;;;;;;10338351;28;20084;-63
2021/10/25 17:48:27;;;;;;;14.20;8.30;;;;;;;;;;10335586;28;20492;-65
2021/10/25 17:53:26;;;;;;;13.38;9.10;;;;;;;;;;10331694;28;20104;-63
2021/10/25 17:58:25;;;;;;;12.23;9.00;;;;;;;;;;10337430;28;20071;-62
2021/10/25 18:03:24;;;;;;;12.95;10.63;;;;;;;;;;10334923;28;20068;-64
2021/10/25 18:08:25;;;;;;;23.63;18.75;;;;;;;;;;10333536;28;20079;-64
2021/10/25 18:13:25;;;;;;;18.67;13.25;;;;;;;;;;10331420;28;20064;-65
2021/10/25 18:18:25;;;;;;;17.15;11.68;;;;;;;;;;10342543;28;20079;-64
2021/10/25 18:23:24;;;;;;;13.30;9.88;;;;;;;;;;10333853;28;21004;-63
2021/10/25 18:28:22;;;;;;;16.05;11.65;;;;;;;;;;10333970;28;20068;-65
2021/10/25 18:33:21;;;;;;;16.70;10.98;;;;;;;;;;10319192;28;20072;-63
2021/10/25 18:38:21;;;;;;;12.90;10.07;;;;;;;;;;10326080;28;20083;-63
2021/10/25 18:43:20;;;;;;;23.52;13.95;;;;;;;;;;10331697;28;20071;-63
2021/10/25 18:48:19;;;;;;;20.10;12.35;;;;;;;;;;10350657;28;20060;-64
2021/10/25 18:53:17;;;;;;;12.73;10.00;;;;;;;;;;10344900;28;20068;-64
2021/10/25 18:58:18;;;;;;;26.90;16.13;;;;;;;;;;10336846;28;20450;-64
2021/10/25 19:03:16;;;;;;;22.85;14.15;;;;;;;;;;10343685;28;20512;-62
2021/10/25 19:08:14;;;;;;;16.00;11.43;;;;;;;;;;10349645;28;20064;-63
2021/10/25 19:13:13;;;;;;;18.48;12.32;;;;;;;;;;10352538;28;20083;-63
2021/10/25 19:18:13;;;;;;;11.65;9.55;;;;;;;;;;10357708;28;20076;-65
2021/10/25 19:23:16;;;;;;;13.00;9.55;;;;;;;;;;10353044;28;20090;-64
2021/10/25 19:28:15;;;;;;;9.50;8.32;;;;;;;;;;10361064;28;20056;-64
2021/10/25 19:33:15;;;;;;;19.20;12.20;;;;;;;;;;10359477;28;20119;-63
2021/10/25 19:38:14;;;;;;;14.57;11.63;;;;;;;;;;10345579;28;20068;-63
2021/10/25 19:43:13;;;;;;;11.57;9.50;;;;;;;;;;10355471;28;20071;-62
2021/10/25 19:48:11;;;;;;;11.30;8.45;;;;;;;;;;10358564;28;20078;-61
2021/10/25 19:53:11;;;;;;;11.30;8.23;;;;;;;;;;10357050;28;20071;-63
2021/10/25 19:58:09;;;;;;;10.55;7.93;;;;;;;;;;10357029;28;20048;-64
2021/10/25 20:03:08;;;;;;;11.57;8.98;;;;;;;;;;10350507;28;20075;-63
2021/10/25 20:08:07;;;;;;;11.52;8.05;;;;;;;;;;10357869;28;20067;-63
2021/10/25 20:13:07;;;;;;;12.65;8.85;;;;;;;;;;10356433;28;20078;-63
2021/10/25 20:18:09;;;;;;;13.70;9.45;;;;;;;;;;10358223;28;20504;-62
2021/10/25 20:23:08;;;;;;;12.73;8.35;;;;;;;;;;10358132;28;20043;-62
2021/10/25 20:28:07;;;;;;;16.00;12.57;;;;;;;;;;10356325;28;20068;-63
2021/10/25 20:33:09;;;;;;;14.80;10.40;;;;;;;;;;10355201;28;20470;-63
2021/10/25 20:38:07;;;;;;;11.52;9.07;;;;;;;;;;10355267;28;20477;-63
2021/10/25 20:43:06;;;;;;;11.65;9.38;;;;;;;;;;10356359;28;20076;-63
2021/10/25 20:48:05;;;;;;;12.32;9.10;;;;;;;;;;10354459;28;20063;-63
2021/10/25 20:53:03;;;;;;;9.00;8.10;;;;;;;;;;10353754;28;20071;-62
2021/10/25 20:58:02;;;;;;;15.32;8.23;;;;;;;;;;10353721;28;20496;-63
2021/10/25 21:03:01;;;;;;;12.10;9.13;;;;;;;;;;10352461;28;20067;-63
2021/10/25 21:08:00;;;;;;;12.82;10.10;;;;;;;;;;10351199;28;20075;-63
2021/10/25 21:12:58;;;;;;;10.60;8.10;;;;;;;;;;10353957;28;20078;-64
2021/10/25 21:17:56;;;;;;;9.52;6.30;;;;;;;;;;10354173;28;20079;-63
2021/10/25 21:22:56;;;;;;;13.13;7.47;;;;;;;;;;10354116;28;20089;-64
2021/10/25 21:27:54;;;;;;;8.43;5.88;;;;;;;;;;10355804;28;20071;-64
2021/10/25 21:32:52;;;;;;;11.40;5.88;;;;;;;;;;10356617;28;20122;-64
2021/10/25 21:37:51;;;;;;;8.40;7.07;;;;;;;;;;10353730;28;20075;-63
2021/10/25 21:42:53;;;;;;;11.35;6.53;;;;;;;;;;10355933;28;20071;-63
2021/10/25 21:47:51;;;;;;;8.48;6.18;;;;;;;;;;10353404;28;20135;-63
2021/10/25 21:52:50;;;;;;;6.97;6.25;;;;;;;;;;10355724;28;20071;-63
2021/10/25 21:57:48;;;;;;;6.97;5.97;;;;;;;;;;10355967;28;20036;-64
2021/10/25 22:02:48;;;;;;;8.52;6.18;;;;;;;;;;10355922;28;20479;-63
2021/10/25 22:07:46;;;;;;;8.57;6.30;;;;;;;;;;10355690;28;20059;-63
2021/10/25 22:13:02;;;;;;;12.95;9.65;;;;;;;;;;10353836;28;20505;-63
2021/10/25 22:18:02;;;;;;;10.70;7.88;;;;;;;;;;10351646;28;20436;-63
2021/10/25 22:23:01;;;;;;;11.13;7.00;;;;;;;;;;10353310;28;20071;-62
2021/10/25 22:27:59;;;;;;;10.77;7.03;;;;;;;;;;10361236;28;20526;-63
2021/10/25 22:32:58;;;;;;;6.53;5.82;;;;;;;;;;10363282;28;20511;-63
2021/10/25 22:37:58;;;;;;;7.95;5.55;;;;;;;;;;10362715;28;20051;-64
2021/10/25 22:42:57;;;;;;;6.45;5.35;;;;;;;;;;10363015;28;20056;-64
2021/10/25 22:47:57;;;;;;;8.00;5.05;;;;;;;;;;10362541;28;20074;-64
2021/10/25 22:52:55;;;;;;;12.18;6.03;;;;;;;;;;10361695;28;20064;-62
2021/10/25 22:57:56;;;;;;;6.07;5.47;;;;;;;;;;10362228;28;20040;-63
2021/10/25 23:02:54;;;;;;;9.38;5.85;;;;;;;;;;10362187;28;20036;-63
2021/10/25 23:07:53;;;;;;;9.32;5.95;;;;;;;;;;10361817;28;20075;-63
2021/10/25 23:12:51;;;;;;;8.43;5.93;;;;;;;;;;10361752;28;20074;-63
2021/10/25 23:17:52;;;;;;;8.43;5.68;;;;;;;;;;10358315;28;20055;-63
2021/10/25 23:22:50;;;;;;;10.23;5.63;;;;;;;;;;10360818;28;20076;-63
2021/10/25 23:27:48;;;;;;;8.13;6.50;;;;;;;;;;10361344;28;20063;-63
2021/10/25 23:32:47;;;;;;;7.13;5.95;;;;;;;;;;10358320;28;20436;-63
2021/10/25 23:37:47;;;;;;;8.25;6.78;;;;;;;;;;10359792;28;20063;-62
2021/10/25 23:42:45;;;;;;;7.70;5.70;;;;;;;;;;10360713;28;20032;-62
2021/10/25 23:47:44;;;;;;;7.15;5.38;;;;;;;;;;10359909;28;20450;-63
2021/10/25 23:52:48;;;;;;;6.32;4.95;;;;;;;;;;10356941;28;20068;-63
2021/10/25 23:57:46;;;;;;;16.42;5.93;;;;;;;;;;10360194;28;20056;-64
